createdAt,value
2023-03-14T00:02:34.026Z,98755.25
2023-03-14T00:05:37.748Z,98752.31
2023-03-14T00:08:41.819Z,98770.22
2023-03-14T00:11:45.000Z,98750.00
2023-03-14T00:14:49.304Z,98753.59
2023-03-14T00:17:52.230Z,98739.91
2023-03-14T00:20:55.725Z,98715.47
2023-03-14T00:23:58.669Z,98710.56
2023-03-14T00:27:01.864Z,98705.69
2023-03-14T00:30:08.898Z,98698.69
2023-03-14T00:33:12.501Z,98696.91
2023-03-14T00:36:21.199Z,98690.69
2023-03-14T00:39:25.290Z,98682.88
2023-03-14T00:42:28.505Z,98678.81
2023-03-14T00:45:32.800Z,98678.66
2023-03-14T00:48:37.848Z,98686.47
2023-03-14T00:51:40.840Z,98688.59
2023-03-14T00:54:44.566Z,98678.97
2023-03-14T00:57:47.478Z,98668.88
2023-03-14T01:00:51.748Z,98667.59
2023-03-14T01:03:56.244Z,98650.78
2023-03-14T01:06:59.632Z,98642.16
2023-03-14T01:10:02.642Z,98635.31
2023-03-14T01:13:10.188Z,98637.28
2023-03-14T01:16:21.136Z,98633.03
2023-03-14T01:19:24.437Z,98650.00
2023-03-14T01:22:27.537Z,98661.72
2023-03-14T01:25:31.090Z,98684.19
2023-03-14T01:28:34.629Z,98708.31
2023-03-14T01:31:52.285Z,98706.66
2023-03-14T01:34:55.370Z,98702.75
2023-03-14T01:37:58.356Z,98711.72
2023-03-14T01:41:02.327Z,98710.41
2023-03-14T01:44:06.002Z,98702.91
2023-03-14T01:47:10.549Z,98696.59
2023-03-14T01:50:14.461Z,98716.09
2023-03-14T01:53:18.368Z,98721.00
2023-03-14T01:56:21.706Z,98722.47
2023-03-14T01:59:25.150Z,98717.13
2023-03-14T02:02:30.336Z,98712.88
2023-03-14T02:05:36.956Z,98709.59
2023-03-14T02:08:49.408Z,98700.81
2023-03-14T02:11:56.449Z,98689.56
2023-03-14T02:15:12.533Z,98687.13
2023-03-14T02:18:29.570Z,98679.47
2023-03-14T02:21:49.933Z,98677.19
2023-03-14T02:25:06.384Z,98678.81
2023-03-14T02:28:13.460Z,98679.78
2023-03-14T02:31:17.582Z,98678.00
2023-03-14T02:34:20.567Z,98670.31
2023-03-14T02:37:29.265Z,98673.44
2023-03-14T02:40:32.567Z,98679.13
2023-03-14T02:43:37.053Z,98652.25
2023-03-14T02:46:44.924Z,98657.94
2023-03-14T02:49:49.437Z,98653.88
2023-03-14T02:52:52.681Z,98651.78
2023-03-14T02:55:56.908Z,98644.78
2023-03-14T02:59:05.040Z,98636.31
2023-03-14T03:02:15.165Z,98620.69
2023-03-14T03:05:18.890Z,98616.47
2023-03-14T03:08:24.665Z,98606.81
2023-03-14T03:11:27.759Z,98599.50
2023-03-14T03:14:32.344Z,98579.50
2023-03-14T03:17:39.368Z,98571.19
2023-03-14T03:20:42.796Z,98569.91
2023-03-14T03:23:45.760Z,98564.34
2023-03-14T03:26:48.705Z,98569.22
2023-03-14T03:29:52.996Z,98575.91
2023-03-14T03:32:58.905Z,98594.63
2023-03-14T03:36:02.118Z,98592.66
2023-03-14T03:39:10.421Z,98593.00
2023-03-14T03:42:13.581Z,98595.28
2023-03-14T03:45:18.260Z,98600.78
2023-03-14T03:48:28.100Z,98591.34
2023-03-14T03:51:31.439Z,98583.03
2023-03-14T03:54:34.884Z,98575.91
2023-03-14T03:57:38.643Z,98577.84
2023-03-14T04:00:43.732Z,98567.28
2023-03-14T04:03:46.805Z,98577.69
2023-03-14T04:06:50.041Z,98576.72
2023-03-14T04:09:55.288Z,98590.72
2023-03-14T04:13:12.595Z,98561.09
2023-03-14T04:16:21.632Z,98581.94
2023-03-14T04:19:25.341Z,98588.25
2023-03-14T04:22:30.615Z,98573.13
2023-03-14T04:25:33.616Z,98565.50
2023-03-14T04:28:40.910Z,98561.75
2023-03-14T04:31:46.257Z,98564.19
2023-03-14T04:34:50.093Z,98565.00
2023-03-14T04:37:53.352Z,98563.38
2023-03-14T04:40:57.681Z,98550.00
2023-03-14T04:44:07.573Z,98544.66
2023-03-14T04:47:13.227Z,98540.59
2023-03-14T04:50:17.819Z,98541.56
2023-03-14T04:53:21.383Z,98529.38
2023-03-14T04:56:26.649Z,98527.88
2023-03-14T04:59:29.978Z,98519.09
2023-03-14T05:02:40.734Z,98525.44
2023-03-14T05:05:56.096Z,98523.00
2023-03-14T05:09:28.006Z,98534.88
2023-03-14T05:12:49.974Z,98534.25
2023-03-14T05:16:13.577Z,98534.69
2023-03-14T05:19:24.425Z,98524.63
2023-03-14T05:22:48.721Z,98512.25
2023-03-14T05:26:22.472Z,98507.06
2023-03-14T05:29:35.887Z,98501.84
2023-03-14T05:33:07.146Z,98505.44
2023-03-14T05:36:28.230Z,98500.72
2023-03-14T05:39:39.351Z,98504.63
2023-03-14T05:42:56.346Z,98508.53
2023-03-14T05:46:24.762Z,98508.69
2023-03-14T05:49:38.806Z,98511.78
2023-03-14T05:53:05.978Z,98515.84
2023-03-14T05:56:25.081Z,98518.28
2023-03-14T05:59:42.702Z,98510.16
2023-03-14T06:02:58.377Z,98504.78
2023-03-14T06:06:07.732Z,98506.09
2023-03-14T06:09:12.360Z,98504.94
2023-03-14T06:12:19.235Z,98520.75
2023-03-14T06:15:23.599Z,98517.47
2023-03-14T06:18:29.702Z,98503.16
2023-03-14T06:21:33.447Z,98507.72
2023-03-14T06:24:37.957Z,98506.75
2023-03-14T06:27:41.638Z,98516.19
2023-03-14T06:30:56.128Z,98514.53
2023-03-14T06:33:59.576Z,98512.59
2023-03-14T06:37:06.842Z,98516.16
2023-03-14T06:40:13.720Z,98522.34
2023-03-14T06:43:30.534Z,98508.53
2023-03-14T06:46:34.449Z,98529.19
2023-03-14T06:49:38.254Z,98533.88
2023-03-14T06:52:47.146Z,98540.72
2023-03-14T06:55:54.762Z,98550.47
2023-03-14T06:58:58.692Z,98541.84
2023-03-14T07:02:05.745Z,98547.69
2023-03-14T07:05:11.179Z,98552.91
2023-03-14T07:08:14.462Z,98562.66
2023-03-14T07:11:18.965Z,98565.09
2023-03-14T07:14:25.381Z,98561.63
2023-03-14T07:17:28.574Z,98565.22
2023-03-14T07:20:33.443Z,98576.00
2023-03-14T07:23:39.628Z,98573.53
2023-03-14T07:26:45.076Z,98576.81
2023-03-14T07:29:48.226Z,98580.88
2023-03-14T07:32:52.806Z,98577.94
2023-03-14T07:35:59.101Z,98571.75
2023-03-14T07:39:02.307Z,98569.13
2023-03-14T07:42:12.964Z,98572.91
2023-03-14T07:45:42.285Z,98573.72
2023-03-14T07:48:46.037Z,98576.81
2023-03-14T07:51:49.909Z,98580.72
2023-03-14T07:54:52.856Z,98573.72
2023-03-14T07:57:57.158Z,98566.84
2023-03-14T08:01:01.196Z,98573.72
2023-03-14T08:04:04.259Z,98577.44
2023-03-14T08:07:07.795Z,98568.47
2023-03-14T08:10:14.084Z,98572.38
2023-03-14T08:13:18.504Z,98571.72
2023-03-14T08:16:22.156Z,98552.78
2023-03-14T08:19:25.541Z,98558.94
2023-03-14T08:22:28.512Z,98561.84
2023-03-14T08:25:32.374Z,98550.09
2023-03-14T08:28:36.726Z,98554.94
2023-03-14T08:31:39.742Z,98562.78
2023-03-14T08:34:43.026Z,98563.25
2023-03-14T08:37:46.332Z,98566.31
2023-03-14T08:40:50.226Z,98563.38
2023-03-14T08:43:54.695Z,98573.50
2023-03-14T08:46:57.911Z,98576.59
2023-03-14T08:50:01.146Z,98579.03
2023-03-14T08:53:04.342Z,98586.88
2023-03-14T08:56:10.866Z,98581.13
2023-03-14T08:59:15.187Z,98580.31
2023-03-14T09:02:18.299Z,98579.97
2023-03-14T09:05:21.294Z,98586.31
2023-03-14T09:08:24.354Z,98582.56
2023-03-14T09:11:27.327Z,98573.03
2023-03-14T09:14:31.691Z,98572.69
2023-03-14T09:17:34.748Z,98559.59
2023-03-14T09:20:40.162Z,98552.50
2023-03-14T09:23:43.978Z,98563.25
2023-03-14T09:26:48.138Z,98548.28
2023-03-14T09:29:52.412Z,98535.56
2023-03-14T09:32:55.448Z,98543.16
2023-03-14T09:36:01.339Z,98547.50
2023-03-14T09:39:05.274Z,98545.84
2023-03-14T09:42:15.429Z,98541.28
2023-03-14T09:45:27.929Z,98555.94
2023-03-14T09:48:53.393Z,98553.88
2023-03-14T09:52:01.322Z,98555.25
2023-03-14T09:55:08.853Z,98544.47
2023-03-14T09:58:15.590Z,98555.31
2023-03-14T10:01:25.108Z,98562.94
2023-03-14T10:04:29.031Z,98559.50
2023-03-14T10:07:34.119Z,98563.09
2023-03-14T10:10:37.520Z,98568.66
2023-03-14T10:13:51.440Z,98564.50
2023-03-14T10:16:55.906Z,98565.97
2023-03-14T10:20:01.680Z,98562.28
2023-03-14T10:23:07.940Z,98557.88
2023-03-14T10:26:17.012Z,98557.56
2023-03-14T10:29:19.981Z,98559.03
2023-03-14T10:32:30.912Z,98570.84
2023-03-14T10:35:36.706Z,98568.75
2023-03-14T10:38:39.882Z,98567.41
2023-03-14T10:41:49.021Z,98560.94
2023-03-14T10:44:58.286Z,98569.91
2023-03-14T10:48:21.042Z,98563.88
2023-03-14T10:51:29.294Z,98563.25
2023-03-14T10:54:32.946Z,98563.53
2023-03-14T10:57:40.601Z,98555.69
2023-03-14T11:00:43.610Z,98564.22
2023-03-14T11:03:55.649Z,98560.28
2023-03-14T11:07:05.471Z,98564.50
2023-03-14T11:10:21.560Z,98565.78
2023-03-14T11:13:28.473Z,98556.94
2023-03-14T11:16:45.954Z,98561.00
2023-03-14T11:20:07.108Z,98564.72
2023-03-14T11:23:17.496Z,98565.53
2023-03-14T11:26:31.623Z,98567.69
2023-03-14T11:29:42.592Z,98571.81
2023-03-14T11:32:48.822Z,98573.44
2023-03-14T11:36:00.859Z,98564.63
2023-03-14T11:39:04.790Z,98554.59
2023-03-14T11:42:15.993Z,98560.81
2023-03-14T11:45:28.992Z,98564.44
2023-03-14T11:48:42.056Z,98563.16
2023-03-14T11:51:50.328Z,98564.16
2023-03-14T11:54:58.697Z,98563.97
2023-03-14T11:58:07.636Z,98558.19
2023-03-14T12:01:15.498Z,98561.38
2023-03-14T12:04:28.323Z,98561.81
2023-03-14T12:07:42.748Z,98563.13
2023-03-14T12:10:51.885Z,98553.53
2023-03-14T12:13:55.557Z,98558.75
2023-03-14T12:17:01.606Z,98558.03
2023-03-14T12:20:19.025Z,98555.03
2023-03-14T12:23:24.031Z,98540.34
2023-03-14T12:26:30.149Z,98538.47
2023-03-14T12:29:33.652Z,98540.00
2023-03-14T12:32:37.330Z,98533.13
2023-03-14T12:35:44.066Z,98528.63
2023-03-14T12:39:12.570Z,98527.22
2023-03-14T12:42:27.403Z,98527.09
2023-03-14T12:45:34.634Z,98527.28
2023-03-14T12:48:41.123Z,98530.69
2023-03-14T12:51:45.111Z,98528.38
2023-03-14T12:54:57.179Z,98535.13
2023-03-14T12:58:11.153Z,98527.00
2023-03-14T13:01:21.079Z,98521.44
2023-03-14T13:04:39.776Z,98514.22
2023-03-14T13:08:11.136Z,98518.16
2023-03-14T13:11:20.408Z,98524.75
2023-03-14T13:14:24.802Z,98532.03
2023-03-14T13:17:36.475Z,98532.69
2023-03-14T13:20:45.130Z,98530.78
2023-03-14T13:24:01.361Z,98529.03
2023-03-14T13:27:28.462Z,98530.28
2023-03-14T13:30:42.208Z,98522.38
2023-03-14T13:33:45.308Z,98504.28
2023-03-14T13:36:53.673Z,98494.28
2023-03-14T13:39:59.346Z,98482.50
2023-03-14T13:43:16.332Z,98453.56
2023-03-14T13:46:26.513Z,98440.91
2023-03-14T13:49:36.438Z,98438.06
2023-03-14T13:52:40.718Z,98449.81
2023-03-14T13:55:43.841Z,98465.00
2023-03-14T13:58:49.897Z,98476.31
2023-03-14T14:01:53.477Z,98481.97
2023-03-14T14:04:57.500Z,98478.31
2023-03-14T14:08:01.400Z,98479.06
2023-03-14T14:11:06.161Z,98496.75
2023-03-14T14:14:17.276Z,98474.88
2023-03-14T14:17:23.833Z,98468.66
2023-03-14T14:20:36.017Z,98477.06
2023-03-14T14:23:40.095Z,98460.72
2023-03-14T14:26:49.130Z,98464.72
2023-03-14T14:30:03.561Z,98456.50
2023-03-14T14:33:23.692Z,98456.59
2023-03-14T14:36:54.819Z,98463.38
2023-03-14T14:40:09.010Z,98464.03
2023-03-14T14:43:19.629Z,98470.34
2023-03-14T14:46:24.522Z,98462.53
2023-03-14T14:49:32.058Z,98462.03
2023-03-14T14:52:41.724Z,98460.59
2023-03-14T14:55:45.105Z,98458.84
2023-03-14T14:58:49.115Z,98453.09
2023-03-14T15:01:58.789Z,98466.53
2023-03-14T15:05:02.262Z,98459.22
2023-03-14T15:08:10.577Z,98466.03
2023-03-14T15:11:19.806Z,98466.75
2023-03-14T15:14:25.317Z,98475.06
2023-03-14T15:17:29.626Z,98467.31
2023-03-14T15:20:34.193Z,98465.16
2023-03-14T15:23:39.287Z,98474.16
2023-03-14T15:26:45.209Z,98574.88
2023-03-14T15:29:48.236Z,98653.09
2023-03-14T15:32:54.415Z,98659.44
2023-03-14T15:36:04.984Z,98670.44
2023-03-14T15:39:09.404Z,98709.75
2023-03-14T15:42:12.623Z,98716.84
2023-03-14T15:45:15.647Z,98760.53
2023-03-14T15:48:23.058Z,98780.38
2023-03-14T15:51:26.012Z,98804.34
2023-03-14T15:54:29.897Z,98810.25
2023-03-14T15:57:33.019Z,98837.81
2023-03-14T16:00:38.818Z,98864.78
2023-03-14T16:03:45.018Z,98894.47
2023-03-14T16:06:48.035Z,98904.38
2023-03-14T16:09:51.171Z,98915.41
2023-03-14T16:12:54.162Z,98959.53
2023-03-14T16:15:59.377Z,98991.63
2023-03-14T16:19:06.076Z,99004.50
2023-03-14T16:22:09.358Z,99037.69
2023-03-14T16:25:13.490Z,99044.91
2023-03-14T16:28:16.479Z,99057.75
2023-03-14T16:31:23.608Z,99063.28
2023-03-14T16:34:28.532Z,99078.88
2023-03-14T16:37:31.577Z,99091.41
2023-03-14T16:40:35.041Z,99109.56
2023-03-14T16:43:38.644Z,99110.34
2023-03-14T16:46:41.946Z,99120.09
2023-03-14T16:49:46.265Z,99132.34
2023-03-14T16:52:49.857Z,99145.94
2023-03-14T16:55:52.897Z,99159.09
2023-03-14T16:58:55.862Z,99195.13
2023-03-14T17:01:58.869Z,99206.69
2023-03-14T17:05:03.799Z,99215.22
2023-03-14T17:08:06.933Z,99241.19
2023-03-14T17:11:11.052Z,99258.53
2023-03-14T17:14:13.985Z,99260.91
2023-03-14T17:17:16.936Z,99291.72
2023-03-14T17:20:21.469Z,99306.03
2023-03-14T17:23:26.470Z,99320.25
2023-03-14T17:26:30.091Z,99328.59
2023-03-14T17:29:33.504Z,99350.25
2023-03-14T17:32:36.991Z,99361.09
2023-03-14T17:35:41.329Z,99365.97
2023-03-14T17:38:44.462Z,99376.69
2023-03-14T17:41:48.352Z,99378.88
2023-03-14T17:44:51.616Z,99378.34
2023-03-14T17:48:00.119Z,99390.47
2023-03-14T17:51:07.601Z,99395.97
2023-03-14T17:54:10.650Z,99410.97
2023-03-14T17:57:13.912Z,99421.41
2023-03-14T18:00:18.417Z,99436.03
2023-03-14T18:03:22.374Z,99440.88
2023-03-14T18:06:30.160Z,99469.97
2023-03-14T18:09:33.222Z,99470.94
2023-03-14T18:12:36.327Z,99480.28
2023-03-14T18:15:39.556Z,99474.63
2023-03-14T18:18:43.378Z,99485.84
2023-03-14T18:21:48.066Z,99502.34
2023-03-14T18:24:51.179Z,99507.13
2023-03-14T18:27:56.928Z,99508.97
2023-03-14T18:31:03.112Z,99508.97
2023-03-14T18:34:06.507Z,99525.22
2023-03-14T18:37:10.821Z,99530.63
2023-03-14T18:40:17.361Z,99529.28
2023-03-14T18:43:20.476Z,99534.88
2023-03-14T18:46:23.876Z,99550.88
2023-03-14T18:49:28.590Z,99558.78
2023-03-14T18:52:33.366Z,99573.56
2023-03-14T18:55:36.372Z,99581.28
2023-03-14T18:58:39.361Z,99593.44
2023-03-14T19:01:43.173Z,99604.75
2023-03-14T19:04:46.195Z,99606.19
2023-03-14T19:07:50.723Z,99619.63
2023-03-14T19:10:55.927Z,99622.13
2023-03-14T19:13:59.945Z,99629.09
2023-03-14T19:17:02.950Z,99629.91
2023-03-14T19:20:08.836Z,99634.34
2023-03-14T19:23:14.089Z,99642.41
2023-03-14T19:26:18.730Z,99650.06
2023-03-14T19:29:21.869Z,99656.63
2023-03-14T19:32:25.684Z,99665.06
2023-03-14T19:35:28.722Z,99675.19
2023-03-14T19:38:33.331Z,99679.22
2023-03-14T19:41:36.743Z,99699.19
2023-03-14T19:44:40.399Z,99710.22
2023-03-14T19:47:43.583Z,99718.41
2023-03-14T19:50:46.649Z,99722.56
2023-03-14T19:53:51.110Z,99723.38
2023-03-14T19:56:54.557Z,99733.13
2023-03-14T19:59:57.828Z,99747.84
2023-03-14T20:03:03.482Z,99752.78
2023-03-14T20:06:11.655Z,99770.06
2023-03-14T20:09:16.006Z,99779.34
2023-03-14T20:12:19.021Z,99804.84
2023-03-14T20:15:22.458Z,99820.75
2023-03-14T20:18:25.689Z,99827.63
2023-03-14T20:21:28.857Z,99847.47
2023-03-14T20:24:33.379Z,99844.41
2023-03-14T20:27:36.934Z,99860.44
2023-03-14T20:30:40.016Z,99857.50
2023-03-14T20:33:43.517Z,99873.97
2023-03-14T20:36:48.671Z,99878.34
2023-03-14T20:39:53.251Z,99884.41
2023-03-14T20:42:56.401Z,99908.03
2023-03-14T20:46:02.023Z,99904.19
2023-03-14T20:49:05.399Z,99923.13
2023-03-14T20:52:09.683Z,99919.72
2023-03-14T20:55:14.009Z,99925.09
2023-03-14T20:58:17.632Z,99928.75
2023-03-14T21:01:21.024Z,99930.25
2023-03-14T21:04:25.176Z,99926.66
2023-03-14T21:07:31.098Z,99933.75
2023-03-14T21:10:36.141Z,99941.38
2023-03-14T21:13:39.495Z,99953.72
2023-03-14T21:16:42.496Z,99955.47
2023-03-14T21:19:45.704Z,99960.31
2023-03-14T21:22:49.035Z,99966.28
2023-03-14T21:25:54.084Z,99972.16
2023-03-14T21:28:57.443Z,99971.56
2023-03-14T21:32:00.364Z,99978.91
2023-03-14T21:35:03.401Z,99991.25
2023-03-14T21:38:06.381Z,100000.97
2023-03-14T21:41:10.652Z,100003.53
2023-03-14T21:44:15.737Z,100025.00
2023-03-14T21:47:20.118Z,100014.28
2023-03-14T21:50:24.286Z,100028.81
2023-03-14T21:53:30.226Z,100030.78
2023-03-14T21:56:34.612Z,100036.31
2023-03-14T21:59:39.163Z,100050.94
2023-03-14T22:02:44.027Z,100041.69
2023-03-14T22:05:50.323Z,100043.84
2023-03-14T22:08:55.093Z,100041.53
2023-03-14T22:11:59.885Z,100051.06
2023-03-14T22:15:03.457Z,100056.97
2023-03-14T22:18:06.473Z,100065.75
2023-03-14T22:21:09.440Z,100065.75
2023-03-14T22:24:12.949Z,100073.47
2023-03-14T22:27:17.553Z,100076.78
2023-03-14T22:30:20.777Z,100078.75
2023-03-14T22:33:23.722Z,100086.53
2023-03-14T22:36:26.697Z,100098.63
2023-03-14T22:39:29.993Z,100093.94
2023-03-14T22:42:34.275Z,100103.31
2023-03-14T22:45:37.497Z,100111.16
2023-03-14T22:48:40.872Z,100127.44
2023-03-14T22:51:44.105Z,100125.81
2023-03-14T22:54:47.072Z,100135.00
2023-03-14T22:57:53.854Z,100132.28
2023-03-14T23:00:56.892Z,100132.34
2023-03-14T23:03:59.954Z,100141.56
2023-03-14T23:07:05.247Z,100145.97
2023-03-14T23:10:09.683Z,100152.97
2023-03-14T23:13:14.556Z,100158.28
2023-03-14T23:16:18.747Z,100153.28
2023-03-14T23:19:25.661Z,100156.66
2023-03-14T23:22:32.747Z,100165.56
2023-03-14T23:25:52.137Z,100164.75
2023-03-14T23:28:57.539Z,100164.13
2023-03-14T23:32:00.530Z,100176.19
2023-03-14T23:35:03.487Z,100180.50
2023-03-14T23:38:06.946Z,100179.03
2023-03-14T23:41:14.406Z,100180.34
2023-03-14T23:44:18.687Z,100184.03
2023-03-14T23:47:21.681Z,100190.63
2023-03-14T23:50:24.770Z,100203.47
2023-03-14T23:53:30.006Z,100211.97
2023-03-14T23:56:32.988Z,100216.47
2023-03-14T23:59:38.994Z,100221.47
